NZOH/OHA METAR and TAF weather

Enter ICAO airport designator
Station Type Date Time Source
NZOH METAR 2020/05/24 18:40 UTC NOAA

NZOH 241840Z 10005KT 6000 -RADZ BKN039 OVC048 13/12 Q1005 TEMPO RA BECMG FM2000 29012KT


Station Type Date Time Source
NZOH Decoded METAR 2020/05/24 18:40 UTC NOAA

Ohakea, New Zealand (NZOH) 40-12S 175-22E 52M
May 24, 2020 - 02:40 PM EDT / 2020.05.24 1840 UTC
Wind: from the E (100 degrees) at 6 MPH (5 KT):0
Visibility: 3 mile(s):0
Sky conditions: overcast
Weather: light rain, drizzle
Temperature: 55 F (13 C)
Dew Point: 53 F (12 C)
Relative Humidity: 93%
Pressure (altimeter): 29.68 in. Hg (1005 hPa)
ob: NZOH 241840Z 10005KT 6000 -RADZ BKN039 OVC048 13/12 Q1005 TEMPO RA BECMG FM2000 29012KT
cycle: 18

Station Type Date Time Source
NZOH TAF 2007/12/14 04:59 UTC NOAA

TAF NZOH 140459Z 140606 11020KT 30KM SCT080 BECMH 0911 03008KT
BECMG 2224 27012KT

Example: see airport list